createdAt,value
2016-10-21T04:51:05.501Z,100252
2016-10-21T04:52:05.480Z,100252
2016-10-21T04:53:06.057Z,100250
2016-10-21T04:54:05.344Z,100249
2016-10-21T04:55:06.037Z,100252
2016-10-21T04:56:06.112Z,100250
2016-10-21T04:57:06.021Z,100248
2016-10-21T04:58:05.421Z,100250
2016-10-21T04:59:05.714Z,100243
2016-10-21T05:00:05.392Z,100246
2016-10-21T05:01:05.560Z,100246
2016-10-21T05:02:06.095Z,100251
2016-10-21T05:03:05.549Z,100250
2016-10-21T05:04:06.039Z,100250
2016-10-21T05:04:23.587Z,100250
2016-10-21T05:05:53.506Z,100250
2016-10-21T05:06:52.585Z,100251
2016-10-21T05:07:52.583Z,100246
2016-10-21T05:08:52.586Z,100248
2016-10-21T05:09:53.461Z,100243
2016-10-21T05:10:53.479Z,100240
2016-10-21T05:11:52.547Z,100244
2016-10-21T05:12:53.487Z,100238
2016-10-21T05:13:53.516Z,100244
2016-10-21T05:14:52.606Z,100242
2016-10-21T05:15:52.584Z,100244
2016-10-21T05:16:53.460Z,100243
2016-10-21T05:17:52.578Z,100243
2016-10-21T05:18:53.493Z,100243
2016-10-21T05:19:53.504Z,100240
2016-10-21T05:20:52.595Z,100237
2016-10-21T05:21:53.497Z,100235
2016-10-21T05:22:52.572Z,100235
2016-10-21T05:23:52.582Z,100235
2016-10-21T05:24:53.210Z,100237
2016-10-21T05:25:53.482Z,100240
2016-10-21T05:26:53.549Z,100239
2016-10-21T05:27:53.498Z,100242
2016-10-21T05:28:52.584Z,100238
2016-10-21T05:29:53.824Z,100239
2016-10-21T05:30:54.135Z,100241
2016-10-21T05:31:53.518Z,100240
2016-10-21T05:32:53.814Z,100240
2016-10-21T05:33:53.723Z,100243
2016-10-21T05:34:53.774Z,100238
2016-10-21T05:35:53.539Z,100243
2016-10-21T05:36:53.327Z,100241
2016-10-21T05:37:53.775Z,100241
2016-10-21T05:38:52.855Z,100239
2016-10-21T05:39:52.570Z,100242
2016-10-21T05:40:52.819Z,100237
2016-10-21T05:41:52.570Z,100241
2016-10-21T05:42:52.593Z,100241
2016-10-21T05:43:53.454Z,100244
2016-10-21T05:44:52.606Z,100247
2016-10-21T05:45:52.592Z,100246
2016-10-21T05:46:53.461Z,100247
2016-10-21T05:47:52.613Z,100248
2016-10-21T05:48:53.487Z,100251
2016-10-21T05:49:52.582Z,100253
2016-10-21T05:50:52.602Z,100248
2016-10-21T05:51:52.581Z,100249
2016-10-21T05:52:52.581Z,100247
2016-10-21T05:53:52.570Z,100245
2016-10-21T05:54:53.230Z,100248
2016-10-21T05:55:53.455Z,100242
2016-10-21T05:56:53.487Z,100244
2016-10-21T05:57:52.777Z,100245
2016-10-21T05:58:52.569Z,100239
2016-10-21T05:59:53.440Z,100246
2016-10-21T06:00:53.479Z,100242
2016-10-21T06:01:53.744Z,100242
2016-10-21T06:02:53.460Z,100247
2016-10-21T06:03:53.507Z,100247
2016-10-21T06:04:53.540Z,100250
2016-10-21T06:05:53.457Z,100253
2016-10-21T06:06:53.901Z,100254
2016-10-21T06:07:53.488Z,100258
2016-10-21T06:08:53.488Z,100263
2016-10-21T06:09:52.840Z,100258
2016-10-21T06:10:53.723Z,100259
2016-10-21T06:11:53.699Z,100260
2016-10-21T06:12:56.013Z,100261
2016-10-21T06:13:53.479Z,100264
2016-10-21T06:14:54.422Z,100267
2016-10-21T06:15:53.495Z,100270
2016-10-21T06:16:53.457Z,100274
2016-10-21T06:17:54.205Z,100273
2016-10-21T06:18:52.820Z,100273
2016-10-21T06:19:53.648Z,100276
2016-10-21T06:20:53.608Z,100282
2016-10-21T06:21:54.215Z,100281
2016-10-21T06:22:53.459Z,100284
2016-10-21T06:23:54.224Z,100284
2016-10-21T06:24:55.331Z,100286
2016-10-21T06:25:52.582Z,100288
2016-10-21T06:26:53.487Z,100285
2016-10-21T06:27:53.502Z,100291
2016-10-21T06:28:53.672Z,100290
2016-10-21T06:29:53.461Z,100293
2016-10-21T06:30:52.564Z,100287
2016-10-21T06:31:53.466Z,100294
2016-10-21T06:32:52.590Z,100293
2016-10-21T06:33:53.171Z,100293
2016-10-21T06:34:53.507Z,100293
2016-10-21T06:35:52.566Z,100294
2016-10-21T06:36:53.434Z,100299
2016-10-21T06:37:52.577Z,100296
2016-10-21T06:38:52.579Z,100300
2016-10-21T06:39:53.496Z,100303
2016-10-21T06:40:53.458Z,100301
2016-10-21T06:41:54.082Z,100302
2016-10-21T06:42:54.159Z,100306
2016-10-21T06:43:53.452Z,100304
2016-10-21T06:44:53.234Z,100308
2016-10-21T06:47:03.793Z,100296
2016-10-21T06:48:03.131Z,100299
2016-10-21T06:49:02.008Z,100298
2016-10-21T06:50:03.138Z,100298
2016-10-21T06:51:02.003Z,100295
2016-10-21T06:52:01.976Z,100302
2016-10-21T06:53:03.118Z,100300
2016-10-21T06:54:01.995Z,100298
2016-10-21T06:55:01.984Z,100305
2016-10-21T06:56:03.155Z,100304
2016-10-21T06:57:03.159Z,100306
2016-10-21T06:58:03.004Z,100314
2016-10-21T06:59:03.170Z,100311
2016-10-21T07:00:03.218Z,100315
2016-10-21T07:01:03.759Z,100320
2016-10-21T07:02:02.026Z,100316
2016-10-21T07:03:01.967Z,100314
2016-10-21T07:04:03.130Z,100313
2016-10-21T07:05:04.443Z,100313
2016-10-21T07:06:02.005Z,100317
2016-10-21T07:07:01.999Z,100315
2016-10-21T07:08:03.111Z,100315
2016-10-21T07:09:03.730Z,100317
2016-10-21T07:10:03.131Z,100321
2016-10-21T07:11:03.110Z,100318
2016-10-21T07:12:01.939Z,100323
2016-10-21T07:13:03.131Z,100319
2016-10-21T07:14:03.264Z,100310
2016-10-21T07:15:01.974Z,100317
2016-10-21T07:16:01.934Z,100319
2016-10-21T07:17:01.975Z,100320
2016-10-21T07:18:03.145Z,100323
2016-10-21T07:19:03.147Z,100321
2016-10-21T07:20:02.029Z,100324
2016-10-21T07:21:01.926Z,100323
2016-10-21T07:22:03.148Z,100314
2016-10-21T07:23:03.127Z,100316
2016-10-21T07:24:01.987Z,100311
2016-10-21T07:25:03.102Z,100307
2016-10-21T07:26:01.984Z,100304
2016-10-21T07:27:01.996Z,100307
2016-10-21T07:28:01.997Z,100308
2016-10-21T07:29:02.033Z,100310
2016-10-21T07:29:30.523Z,100310
2016-10-21T07:30:30.535Z,100309
2016-10-21T07:31:31.684Z,100307
2016-10-21T07:32:31.637Z,100310
2016-10-21T07:33:31.127Z,100306
2016-10-21T07:34:30.456Z,100305
2016-10-21T07:35:30.416Z,100299
2016-10-21T07:36:31.021Z,100308
2016-10-21T07:40:01.642Z,100308
2016-10-21T07:41:01.010Z,100306
2016-10-21T07:42:01.099Z,100310
2016-10-21T07:43:02.171Z,100309
2016-10-21T08:03:28.852Z,100310
2016-10-21T08:04:28.814Z,100311
2016-10-21T08:05:28.780Z,100318
2016-10-21T08:06:27.697Z,100315
2016-10-21T08:07:27.719Z,100311
2016-10-21T08:08:27.689Z,100313
2016-10-21T08:09:27.631Z,100315
2016-10-21T08:10:27.709Z,100318
2016-10-21T08:11:27.691Z,100315
2016-10-21T08:12:27.633Z,100320
2016-10-21T08:13:27.624Z,100319
2016-10-21T08:14:28.836Z,100322
2016-10-21T08:15:27.625Z,100320
2016-10-21T08:16:27.694Z,100318
2016-10-21T08:17:27.745Z,100314
2016-10-21T08:18:28.798Z,100322
2016-10-21T08:19:28.357Z,100321
2016-10-21T08:20:27.623Z,100324
2016-10-21T08:21:28.904Z,100322
2016-10-21T08:22:29.007Z,100321
2016-10-21T08:23:28.968Z,100326
2016-10-21T08:24:28.309Z,100325
2016-10-21T08:25:27.797Z,100324
2016-10-21T08:26:27.729Z,100321
2016-10-21T08:27:28.828Z,100326
2016-10-21T08:28:32.720Z,100326
2016-10-21T08:29:27.694Z,100320
2016-10-21T08:31:41.330Z,100328
2016-10-21T08:32:47.902Z,100330
2016-10-21T08:33:55.531Z,100334
2016-10-21T08:35:00.474Z,100332
2016-10-21T08:36:07.697Z,100309
2016-10-21T08:37:35.429Z,100331
2016-10-21T08:38:34.360Z,100332
2016-10-21T08:39:34.401Z,100332
2016-10-21T08:40:34.799Z,100327
2016-10-21T08:41:36.478Z,100328
2016-10-21T08:42:35.236Z,100324
2016-10-21T08:43:35.317Z,100329
2016-10-21T08:44:35.884Z,100326
2016-10-21T08:45:35.216Z,100324
2016-10-21T08:46:35.297Z,100327
2016-10-21T08:47:34.508Z,100324
2016-10-21T08:48:35.285Z,100326
2016-10-21T08:49:35.307Z,100323
2016-10-21T08:50:34.462Z,100325
2016-10-21T08:51:34.353Z,100322
2016-10-21T08:52:34.690Z,100326
2016-10-21T08:53:35.236Z,100326
2016-10-21T08:54:35.189Z,100325
2016-10-21T08:55:35.232Z,100324
2016-10-21T08:56:34.518Z,100324
2016-10-21T08:57:34.572Z,100327
2016-10-21T08:58:35.063Z,100329
2016-10-21T08:59:35.420Z,100330
2016-10-21T09:00:34.170Z,100328
2016-10-21T09:01:34.309Z,100332
2016-10-21T09:02:34.503Z,100328
2016-10-21T09:03:34.502Z,100327
2016-10-21T09:04:34.302Z,100328
2016-10-21T09:05:34.327Z,100337
2016-10-21T09:06:34.508Z,100324
2016-10-21T09:07:35.095Z,100337
2016-10-21T09:08:35.151Z,100333
2016-10-21T09:09:35.811Z,100336
2016-10-21T09:10:35.111Z,100318
2016-10-21T09:11:34.549Z,100328
2016-10-21T09:12:35.221Z,100333
2016-10-21T09:13:35.449Z,100331
2016-10-21T09:14:34.462Z,100322
2016-10-21T09:15:35.197Z,100323
2016-10-21T09:16:34.408Z,100324
2016-10-21T09:17:34.415Z,100323
2016-10-21T09:18:35.179Z,100326
2016-10-21T09:19:35.268Z,100326
2016-10-21T09:20:35.060Z,100342
2016-10-21T09:21:34.352Z,100328
2016-10-21T09:22:34.252Z,100337
2016-10-21T09:23:35.157Z,100330
2016-10-21T09:24:35.789Z,100337
2016-10-21T09:25:35.269Z,100332
2016-10-21T09:26:35.937Z,100337
2016-10-21T09:27:35.629Z,100331
2016-10-21T09:28:34.363Z,100335
2016-10-21T09:29:34.499Z,100338
2016-10-21T09:30:35.240Z,100340
2016-10-21T09:31:35.145Z,100337
2016-10-21T09:32:35.204Z,100340
2016-10-21T09:33:34.228Z,100340
2016-10-21T09:34:35.950Z,100341
2016-10-21T09:35:35.288Z,100338
2016-10-21T09:36:36.298Z,100341
2016-10-21T09:37:35.338Z,100338
2016-10-21T09:38:35.332Z,100335
2016-10-21T09:40:35.703Z,100340
2016-10-21T09:41:36.623Z,100340
2016-10-21T09:42:34.852Z,100343
2016-10-21T09:43:35.969Z,100341
2016-10-21T09:44:35.237Z,100337
2016-10-21T09:54:44.596Z,100332
2016-10-21T09:55:44.259Z,100332
2016-10-21T09:56:44.445Z,100336
2016-10-21T09:57:45.105Z,100339
2016-10-21T09:58:45.192Z,100334
2016-10-21T09:59:43.800Z,100336
2016-10-21T10:00:45.980Z,100335
2016-10-21T10:01:45.077Z,100336
2016-10-21T10:02:43.801Z,100331
2016-10-21T10:03:43.769Z,100330
2016-10-21T10:04:45.511Z,100332
2016-10-21T10:05:45.710Z,100334
2016-10-21T10:06:43.806Z,100337
2016-10-21T10:07:43.734Z,100333
2016-10-21T10:10:48.743Z,100336
2016-10-21T10:11:45.404Z,100335
2016-10-21T10:12:45.642Z,100334
2016-10-21T10:13:45.616Z,100329
2016-10-21T10:14:44.833Z,100330
2016-10-21T10:15:45.633Z,100332
2016-10-21T10:16:44.242Z,100336
2016-10-21T10:17:44.227Z,100333
2016-10-21T10:18:45.672Z,100333
2016-10-21T10:19:44.327Z,100333
2016-10-21T10:20:45.596Z,100331
2016-10-21T10:21:44.367Z,100327
